sensor_id;sensor_type;location;lat;lon;timestamp;pressure;altitude;pressure_sealevel;temperature;humidity
34073;BME280;20346;52.702;16.886;2023-07-20T00:01:17;100262.65;;;16.81;48.81
34073;BME280;20346;52.702;16.886;2023-07-20T00:04:03;100262.46;;;16.85;48.90
34073;BME280;20346;52.702;16.886;2023-07-20T00:06:50;100256.85;;;16.86;49.02
34073;BME280;20346;52.702;16.886;2023-07-20T00:09:36;100259.80;;;16.86;49.08
34073;BME280;20346;52.702;16.886;2023-07-20T00:12:22;100257.36;;;16.82;49.21
34073;BME280;20346;52.702;16.886;2023-07-20T00:15:08;100256.75;;;16.84;49.44
34073;BME280;20346;52.702;16.886;2023-07-20T00:17:55;100252.84;;;16.82;49.39
34073;BME280;20346;52.702;16.886;2023-07-20T00:20:41;100249.80;;;16.84;49.38
34073;BME280;20346;52.702;16.886;2023-07-20T00:23:27;100254.32;;;16.88;49.41
34073;BME280;20346;52.702;16.886;2023-07-20T00:26:14;100257.43;;;16.92;49.53
34073;BME280;20346;52.702;16.886;2023-07-20T00:29:00;100256.61;;;16.95;49.54
34073;BME280;20346;52.702;16.886;2023-07-20T00:31:46;100254.77;;;16.96;49.63
34073;BME280;20346;52.702;16.886;2023-07-20T00:34:32;100253.32;;;16.94;49.70
34073;BME280;20346;52.702;16.886;2023-07-20T00:37:19;100254.89;;;16.94;49.78
34073;BME280;20346;52.702;16.886;2023-07-20T00:40:05;100255.93;;;16.98;49.80
34073;BME280;20346;52.702;16.886;2023-07-20T00:42:53;100259.76;;;17.02;49.85
34073;BME280;20346;52.702;16.886;2023-07-20T00:45:39;100259.98;;;17.04;49.96
34073;BME280;20346;52.702;16.886;2023-07-20T00:48:25;100264.64;;;17.01;50.01
34073;BME280;20346;52.702;16.886;2023-07-20T00:51:12;100266.85;;;17.03;50.14
34073;BME280;20346;52.702;16.886;2023-07-20T00:53:58;100257.61;;;17.06;50.23
34073;BME280;20346;52.702;16.886;2023-07-20T00:56:45;100263.33;;;17.07;50.31
34073;BME280;20346;52.702;16.886;2023-07-20T00:59:31;100261.98;;;17.06;50.38
34073;BME280;20346;52.702;16.886;2023-07-20T01:02:18;100262.73;;;17.05;50.36
34073;BME280;20346;52.702;16.886;2023-07-20T01:05:04;100261.42;;;17.07;50.45
34073;BME280;20346;52.702;16.886;2023-07-20T01:07:55;100261.75;;;17.07;50.49
34073;BME280;20346;52.702;16.886;2023-07-20T01:10:46;100264.61;;;16.99;50.61
34073;BME280;20346;52.702;16.886;2023-07-20T01:13:37;100258.72;;;16.98;50.75
34073;BME280;20346;52.702;16.886;2023-07-20T01:16:24;100254.02;;;16.98;50.84
34073;BME280;20346;52.702;16.886;2023-07-20T01:19:12;100253.34;;;16.86;50.94
34073;BME280;20346;52.702;16.886;2023-07-20T01:22:35;100257.35;;;16.86;51.12
34073;BME280;20346;52.702;16.886;2023-07-20T01:31:27;100263.90;;;16.95;51.32
34073;BME280;20346;52.702;16.886;2023-07-20T01:34:17;100264.17;;;17.00;51.42
34073;BME280;20346;52.702;16.886;2023-07-20T01:37:05;100258.30;;;17.06;51.39
34073;BME280;20346;52.702;16.886;2023-07-20T01:39:52;100256.52;;;17.07;51.41
34073;BME280;20346;52.702;16.886;2023-07-20T01:42:44;100252.89;;;17.10;51.53
34073;BME280;20346;52.702;16.886;2023-07-20T01:45:34;100259.80;;;17.15;51.48
34073;BME280;20346;52.702;16.886;2023-07-20T01:48:20;100256.65;;;17.18;51.51
34073;BME280;20346;52.702;16.886;2023-07-20T01:51:06;100249.02;;;17.17;51.58
34073;BME280;20346;52.702;16.886;2023-07-20T01:53:52;100248.60;;;17.19;51.62
34073;BME280;20346;52.702;16.886;2023-07-20T01:56:38;100253.55;;;17.21;51.65
34073;BME280;20346;52.702;16.886;2023-07-20T01:59:24;100249.35;;;17.25;51.66
34073;BME280;20346;52.702;16.886;2023-07-20T02:02:10;100252.34;;;17.28;51.68
34073;BME280;20346;52.702;16.886;2023-07-20T02:04:56;100257.95;;;17.31;51.60
34073;BME280;20346;52.702;16.886;2023-07-20T02:07:43;100261.70;;;17.33;51.59
34073;BME280;20346;52.702;16.886;2023-07-20T02:10:29;100258.75;;;17.32;51.88
34073;BME280;20346;52.702;16.886;2023-07-20T02:13:16;100254.33;;;17.30;51.92
34073;BME280;20346;52.702;16.886;2023-07-20T02:16:02;100252.58;;;17.30;52.00
34073;BME280;20346;52.702;16.886;2023-07-20T02:18:58;100250.95;;;17.18;52.16
34073;BME280;20346;52.702;16.886;2023-07-20T02:21:45;100253.40;;;17.03;52.34
34073;BME280;20346;52.702;16.886;2023-07-20T02:24:33;100258.15;;;17.06;52.43
34073;BME280;20346;52.702;16.886;2023-07-20T02:27:19;100261.87;;;17.12;52.39
34073;BME280;20346;52.702;16.886;2023-07-20T02:30:05;100266.06;;;17.11;52.60
34073;BME280;20346;52.702;16.886;2023-07-20T02:32:52;100264.96;;;17.13;52.68
34073;BME280;20346;52.702;16.886;2023-07-20T02:35:39;100258.16;;;17.16;52.65
34073;BME280;20346;52.702;16.886;2023-07-20T02:38:26;100260.64;;;17.18;52.89
34073;BME280;20346;52.702;16.886;2023-07-20T02:41:12;100266.48;;;17.20;52.85
34073;BME280;20346;52.702;16.886;2023-07-20T02:43:59;100266.44;;;17.25;52.85
34073;BME280;20346;52.702;16.886;2023-07-20T02:47:05;100267.44;;;17.29;52.86
34073;BME280;20346;52.702;16.886;2023-07-20T02:50:07;100268.34;;;17.32;52.97
34073;BME280;20346;52.702;16.886;2023-07-20T02:53:21;100277.80;;;17.34;53.06
34073;BME280;20346;52.702;16.886;2023-07-20T02:56:11;100276.75;;;17.35;53.00
34073;BME280;20346;52.702;16.886;2023-07-20T02:58:57;100272.23;;;17.35;53.16
34073;BME280;20346;52.702;16.886;2023-07-20T03:02:00;100279.00;;;17.35;53.25
34073;BME280;20346;52.702;16.886;2023-07-20T03:04:57;100281.58;;;17.36;53.37
34073;BME280;20346;52.702;16.886;2023-07-20T03:07:44;100278.88;;;17.37;53.45
34073;BME280;20346;52.702;16.886;2023-07-20T03:10:31;100278.75;;;17.40;53.43
34073;BME280;20346;52.702;16.886;2023-07-20T03:13:18;100270.39;;;17.40;53.55
34073;BME280;20346;52.702;16.886;2023-07-20T03:16:12;100272.83;;;17.40;53.48
34073;BME280;20346;52.702;16.886;2023-07-20T03:19:01;100268.23;;;17.38;53.64
34073;BME280;20346;52.702;16.886;2023-07-20T03:21:47;100271.69;;;17.38;53.61
34073;BME280;20346;52.702;16.886;2023-07-20T03:24:34;100274.36;;;17.41;53.76
34073;BME280;20346;52.702;16.886;2023-07-20T03:27:20;100279.08;;;17.44;53.78
34073;BME280;20346;52.702;16.886;2023-07-20T03:30:07;100276.88;;;17.46;53.77
34073;BME280;20346;52.702;16.886;2023-07-20T03:32:55;100274.02;;;17.47;53.77
34073;BME280;20346;52.702;16.886;2023-07-20T03:35:42;100276.83;;;17.47;53.72
34073;BME280;20346;52.702;16.886;2023-07-20T03:38:29;100281.02;;;17.47;53.89
34073;BME280;20346;52.702;16.886;2023-07-20T03:41:15;100283.95;;;17.44;53.91
34073;BME280;20346;52.702;16.886;2023-07-20T03:44:02;100278.73;;;17.44;53.95
34073;BME280;20346;52.702;16.886;2023-07-20T03:46:48;100277.20;;;17.43;54.10
34073;BME280;20346;52.702;16.886;2023-07-20T03:49:34;100279.70;;;17.46;54.04
34073;BME280;20346;52.702;16.886;2023-07-20T03:52:21;100280.64;;;17.44;54.03
34073;BME280;20346;52.702;16.886;2023-07-20T03:55:07;100281.95;;;17.46;54.23
34073;BME280;20346;52.702;16.886;2023-07-20T03:57:53;100280.70;;;17.46;54.28
34073;BME280;20346;52.702;16.886;2023-07-20T04:00:48;100280.64;;;17.48;54.29
34073;BME280;20346;52.702;16.886;2023-07-20T04:03:34;100283.31;;;17.46;54.29
34073;BME280;20346;52.702;16.886;2023-07-20T04:06:41;100291.00;;;17.46;54.44
34073;BME280;20346;52.702;16.886;2023-07-20T04:09:31;100291.91;;;17.49;54.43
34073;BME280;20346;52.702;16.886;2023-07-20T04:12:19;100288.65;;;17.51;54.52
34073;BME280;20346;52.702;16.886;2023-07-20T04:15:06;100291.25;;;17.55;54.48
34073;BME280;20346;52.702;16.886;2023-07-20T04:17:52;100284.40;;;17.56;54.53
34073;BME280;20346;52.702;16.886;2023-07-20T04:20:39;100290.58;;;17.58;54.56
34073;BME280;20346;52.702;16.886;2023-07-20T04:23:34;100290.98;;;17.57;54.63
34073;BME280;20346;52.702;16.886;2023-07-20T04:26:21;100289.41;;;17.57;54.82
34073;BME280;20346;52.702;16.886;2023-07-20T04:29:08;100285.60;;;17.60;54.73
34073;BME280;20346;52.702;16.886;2023-07-20T04:32:14;100283.81;;;17.64;54.57
34073;BME280;20346;52.702;16.886;2023-07-20T04:36:07;100283.49;;;17.70;54.80
34073;BME280;20346;52.702;16.886;2023-07-20T04:38:29;100281.47;;;17.69;54.84
34073;BME280;20346;52.702;16.886;2023-07-20T04:41:21;100282.50;;;17.69;54.86
34073;BME280;20346;52.702;16.886;2023-07-20T04:44:07;100284.18;;;17.71;54.86
34073;BME280;20346;52.702;16.886;2023-07-20T04:46:54;100283.70;;;17.73;54.98
34073;BME280;20346;52.702;16.886;2023-07-20T04:49:40;100283.70;;;17.77;55.05
34073;BME280;20346;52.702;16.886;2023-07-20T04:52:28;100282.98;;;17.84;55.15
34073;BME280;20346;52.702;16.886;2023-07-20T04:55:14;100285.48;;;17.90;55.03
34073;BME280;20346;52.702;16.886;2023-07-20T04:58:41;100285.29;;;17.97;55.04
34073;BME280;20346;52.702;16.886;2023-07-20T05:02:06;100289.27;;;18.04;55.07
34073;BME280;20346;52.702;16.886;2023-07-20T05:05:32;100288.86;;;18.15;55.07
34073;BME280;20346;52.702;16.886;2023-07-20T05:08:58;100290.02;;;18.29;55.01
34073;BME280;20346;52.702;16.886;2023-07-20T05:12:24;100293.13;;;18.46;54.93
34073;BME280;20346;52.702;16.886;2023-07-20T05:15:51;100294.95;;;18.58;54.91
34073;BME280;20346;52.702;16.886;2023-07-20T05:19:16;100292.96;;;18.69;54.80
34073;BME280;20346;52.702;16.886;2023-07-20T05:22:42;100290.02;;;18.93;54.97
34073;BME280;20346;52.702;16.886;2023-07-20T05:26:08;100294.98;;;19.23;54.77
34073;BME280;20346;52.702;16.886;2023-07-20T05:28:54;100296.04;;;19.43;54.55
34073;BME280;20346;52.702;16.886;2023-07-20T05:31:48;100295.39;;;19.58;54.56
34073;BME280;20346;52.702;16.886;2023-07-20T05:34:56;100296.85;;;19.75;54.68
34073;BME280;20346;52.702;16.886;2023-07-20T05:37:44;100297.63;;;20.25;54.56
34073;BME280;20346;52.702;16.886;2023-07-20T05:40:32;100300.20;;;20.80;54.36
34073;BME280;20346;52.702;16.886;2023-07-20T05:43:26;100302.70;;;21.44;54.10
34073;BME280;20346;52.702;16.886;2023-07-20T05:46:33;100307.77;;;22.21;53.73
34073;BME280;20346;52.702;16.886;2023-07-20T05:49:20;100310.17;;;22.91;53.51
34073;BME280;20346;52.702;16.886;2023-07-20T05:52:06;100313.16;;;23.55;53.12
34073;BME280;20346;52.702;16.886;2023-07-20T05:54:52;100309.52;;;24.08;52.67
34073;BME280;20346;52.702;16.886;2023-07-20T05:57:38;100313.80;;;24.52;52.51
34073;BME280;20346;52.702;16.886;2023-07-20T06:00:27;100312.58;;;25.05;51.98
34073;BME280;20346;52.702;16.886;2023-07-20T06:03:13;100318.48;;;25.49;51.63
34073;BME280;20346;52.702;16.886;2023-07-20T06:06:02;100313.08;;;25.84;51.10
34073;BME280;20346;52.702;16.886;2023-07-20T06:08:50;100315.21;;;25.96;50.80
34073;BME280;20346;52.702;16.886;2023-07-20T06:11:36;100316.16;;;25.87;50.72
34073;BME280;20346;52.702;16.886;2023-07-20T06:14:22;100315.52;;;26.05;50.62
34073;BME280;20346;52.702;16.886;2023-07-20T06:17:08;100307.77;;;26.43;50.35
34073;BME280;20346;52.702;16.886;2023-07-20T06:19:54;100306.98;;;26.84;49.93
34073;BME280;20346;52.702;16.886;2023-07-20T06:22:40;100312.70;;;27.15;49.46
34073;BME280;20346;52.702;16.886;2023-07-20T06:25:26;100313.56;;;27.41;49.08
34073;BME280;20346;52.702;16.886;2023-07-20T06:28:12;100321.30;;;27.51;48.87
34073;BME280;20346;52.702;16.886;2023-07-20T06:31:03;100319.70;;;28.00;48.69
34073;BME280;20346;52.702;16.886;2023-07-20T06:33:49;100322.31;;;28.56;48.33
34073;BME280;20346;52.702;16.886;2023-07-20T06:36:35;100318.89;;;29.08;48.07
34073;BME280;20346;52.702;16.886;2023-07-20T06:39:22;100322.86;;;29.64;47.71
34073;BME280;20346;52.702;16.886;2023-07-20T06:42:08;100321.66;;;29.90;46.92
34073;BME280;20346;52.702;16.886;2023-07-20T06:44:54;100323.62;;;30.24;47.06
34073;BME280;20346;52.702;16.886;2023-07-20T06:47:40;100327.52;;;30.53;46.66
34073;BME280;20346;52.702;16.886;2023-07-20T06:50:43;100324.69;;;30.55;46.57
34073;BME280;20346;52.702;16.886;2023-07-20T06:53:30;100324.90;;;30.67;46.10
34073;BME280;20346;52.702;16.886;2023-07-20T06:56:20;100326.63;;;30.84;46.27
34073;BME280;20346;52.702;16.886;2023-07-20T06:59:06;100325.83;;;31.34;45.53
34073;BME280;20346;52.702;16.886;2023-07-20T07:02:13;100327.61;;;31.51;44.63
34073;BME280;20346;52.702;16.886;2023-07-20T07:05:00;100325.69;;;31.28;44.46
34073;BME280;20346;52.702;16.886;2023-07-20T07:08:14;100331.89;;;30.75;44.06
34073;BME280;20346;52.702;16.886;2023-07-20T07:11:04;100330.59;;;29.81;43.96
34073;BME280;20346;52.702;16.886;2023-07-20T07:13:58;100332.73;;;29.44;44.18
34073;BME280;20346;52.702;16.886;2023-07-20T07:16:46;100336.25;;;29.76;43.94
34073;BME280;20346;52.702;16.886;2023-07-20T07:19:41;100332.41;;;29.96;43.39
34073;BME280;20346;52.702;16.886;2023-07-20T07:22:27;100332.44;;;29.83;43.11
34073;BME280;20346;52.702;16.886;2023-07-20T07:25:15;100330.16;;;29.38;42.89
34073;BME280;20346;52.702;16.886;2023-07-20T07:28:01;100329.21;;;28.77;42.96
34073;BME280;20346;52.702;16.886;2023-07-20T07:30:37;100331.42;;;28.15;42.73
34073;BME280;20346;52.702;16.886;2023-07-20T07:33:11;100331.59;;;27.50;42.73
34073;BME280;20346;52.702;16.886;2023-07-20T07:36:36;100329.69;;;26.69;42.55
34073;BME280;20346;52.702;16.886;2023-07-20T07:39:59;100330.98;;;25.95;42.57
34073;BME280;20346;52.702;16.886;2023-07-20T07:43:24;100332.83;;;25.37;42.51
34073;BME280;20346;52.702;16.886;2023-07-20T07:46:50;100334.58;;;24.94;42.47
34073;BME280;20346;52.702;16.886;2023-07-20T07:50:17;100339.67;;;24.77;42.60
34073;BME280;20346;52.702;16.886;2023-07-20T07:53:43;100341.68;;;26.15;42.56
34073;BME280;20346;52.702;16.886;2023-07-20T07:57:14;100341.55;;;29.38;41.68
34073;BME280;20346;52.702;16.886;2023-07-20T08:00:40;100337.90;;;32.23;40.36
34073;BME280;20346;52.702;16.886;2023-07-20T08:04:06;100336.73;;;34.24;39.58
34073;BME280;20346;52.702;16.886;2023-07-20T08:07:33;100334.77;;;33.01;39.68
34073;BME280;20346;52.702;16.886;2023-07-20T08:10:58;100339.88;;;30.61;39.82
34073;BME280;20346;52.702;16.886;2023-07-20T08:14:24;100340.08;;;29.70;40.40
34073;BME280;20346;52.702;16.886;2023-07-20T08:17:50;100336.59;;;29.72;40.00
34073;BME280;20346;52.702;16.886;2023-07-20T08:21:16;100336.98;;;29.01;39.85
34073;BME280;20346;52.702;16.886;2023-07-20T08:24:43;100339.87;;;28.25;39.82
34073;BME280;20346;52.702;16.886;2023-07-20T08:28:13;100342.16;;;27.59;39.72
34073;BME280;20346;52.702;16.886;2023-07-20T08:31:34;100341.66;;;26.94;39.77
34073;BME280;20346;52.702;16.886;2023-07-20T08:35:01;100341.55;;;26.47;39.85
34073;BME280;20346;52.702;16.886;2023-07-20T08:38:27;100341.57;;;26.33;39.92
34073;BME280;20346;52.702;16.886;2023-07-20T08:41:53;100341.35;;;26.92;39.71
34073;BME280;20346;52.702;16.886;2023-07-20T08:45:19;100346.55;;;27.05;39.34
34073;BME280;20346;52.702;16.886;2023-07-20T08:48:44;100345.19;;;26.78;39.57
34073;BME280;20346;52.702;16.886;2023-07-20T08:52:11;100344.08;;;26.79;39.47
34073;BME280;20346;52.702;16.886;2023-07-20T08:55:37;100348.40;;;26.70;39.58
34073;BME280;20346;52.702;16.886;2023-07-20T08:59:03;100356.36;;;26.56;39.44
34073;BME280;20346;52.702;16.886;2023-07-20T09:02:29;100358.01;;;26.10;39.56
34073;BME280;20346;52.702;16.886;2023-07-20T09:05:55;100354.59;;;25.80;39.70
34073;BME280;20346;52.702;16.886;2023-07-20T09:09:21;100361.38;;;25.70;39.63
34073;BME280;20346;52.702;16.886;2023-07-20T09:12:50;100364.98;;;25.37;39.82
34073;BME280;20346;52.702;16.886;2023-07-20T09:16:16;100371.34;;;25.02;40.10
34073;BME280;20346;52.702;16.886;2023-07-20T09:19:45;100368.39;;;24.84;40.22
34073;BME280;20346;52.702;16.886;2023-07-20T09:23:13;100363.21;;;24.85;40.50
34073;BME280;20346;52.702;16.886;2023-07-20T09:26:42;100357.34;;;25.05;40.58
34073;BME280;20346;52.702;16.886;2023-07-20T09:30:11;100355.02;;;25.12;40.39
34073;BME280;20346;52.702;16.886;2023-07-20T09:33:36;100358.33;;;25.02;40.50
34073;BME280;20346;52.702;16.886;2023-07-20T09:37:02;100359.90;;;24.95;40.78
34073;BME280;20346;52.702;16.886;2023-07-20T09:40:19;100362.30;;;24.94;40.79
34073;BME280;20346;52.702;16.886;2023-07-20T09:43:09;100359.12;;;24.88;40.68
34073;BME280;20346;52.702;16.886;2023-07-20T09:45:59;100354.68;;;24.77;40.81
34073;BME280;20346;52.702;16.886;2023-07-20T09:48:52;100354.59;;;24.67;40.92
34073;BME280;20346;52.702;16.886;2023-07-20T09:51:50;100355.29;;;24.67;40.98
34073;BME280;20346;52.702;16.886;2023-07-20T09:54:39;100349.55;;;24.59;40.94
34073;BME280;20346;52.702;16.886;2023-07-20T09:57:27;100349.04;;;24.57;41.09
34073;BME280;20346;52.702;16.886;2023-07-20T10:00:15;100346.84;;;24.73;41.07
34073;BME280;20346;52.702;16.886;2023-07-20T10:03:42;100343.70;;;24.93;41.08
34073;BME280;20346;52.702;16.886;2023-07-20T10:06:31;100344.58;;;25.00;41.15
34073;BME280;20346;52.702;16.886;2023-07-20T10:09:56;100340.77;;;25.05;41.09
34073;BME280;20346;52.702;16.886;2023-07-20T10:13:25;100349.92;;;24.97;41.04
34073;BME280;20346;52.702;16.886;2023-07-20T10:16:54;100350.29;;;24.88;41.13
34073;BME280;20346;52.702;16.886;2023-07-20T10:20:19;100347.98;;;24.79;41.18
34073;BME280;20346;52.702;16.886;2023-07-20T10:23:45;100341.56;;;24.60;41.19
34073;BME280;20346;52.702;16.886;2023-07-20T10:26:48;100347.27;;;24.41;41.22
34073;BME280;20346;52.702;16.886;2023-07-20T10:29:36;100350.59;;;24.33;41.33
34073;BME280;20346;52.702;16.886;2023-07-20T10:32:27;100348.06;;;24.31;41.26
34073;BME280;20346;52.702;16.886;2023-07-20T10:35:15;100340.65;;;24.27;41.32
34073;BME280;20346;52.702;16.886;2023-07-20T10:38:03;100344.02;;;24.15;41.19
34073;BME280;20346;52.702;16.886;2023-07-20T10:41:28;100344.16;;;24.13;41.39
34073;BME280;20346;52.702;16.886;2023-07-20T10:44:38;100338.31;;;24.16;41.28
34073;BME280;20346;52.702;16.886;2023-07-20T10:48:04;100331.24;;;24.19;41.29
34073;BME280;20346;52.702;16.886;2023-07-20T10:51:30;100332.23;;;24.15;41.34
34073;BME280;20346;52.702;16.886;2023-07-20T10:54:59;100325.65;;;24.18;41.57
34073;BME280;20346;52.702;16.886;2023-07-20T10:58:28;100317.32;;;24.23;41.42
34073;BME280;20346;52.702;16.886;2023-07-20T11:01:36;100311.98;;;24.31;41.52
34073;BME280;20346;52.702;16.886;2023-07-20T11:05:00;100306.60;;;24.37;41.56
34073;BME280;20346;52.702;16.886;2023-07-20T11:08:39;100308.20;;;24.38;41.56
34073;BME280;20346;52.702;16.886;2023-07-20T11:12:17;100300.15;;;24.53;41.66
34073;BME280;20346;52.702;16.886;2023-07-20T11:19:24;100299.13;;;24.79;41.53
34073;BME280;20346;52.702;16.886;2023-07-20T11:22:50;100294.68;;;24.73;41.48
34073;BME280;20346;52.702;16.886;2023-07-20T11:26:16;100301.57;;;24.78;41.57
34073;BME280;20346;52.702;16.886;2023-07-20T11:29:42;100298.97;;;24.79;41.55
34073;BME280;20346;52.702;16.886;2023-07-20T11:32:28;100291.83;;;24.91;41.62
34073;BME280;20346;52.702;16.886;2023-07-20T11:35:54;100292.02;;;24.99;41.50
34073;BME280;20346;52.702;16.886;2023-07-20T11:39:05;100300.95;;;24.89;41.47
34073;BME280;20346;52.702;16.886;2023-07-20T11:42:32;100307.25;;;24.70;41.57
34073;BME280;20346;52.702;16.886;2023-07-20T11:45:56;100310.73;;;24.58;41.49
34073;BME280;20346;52.702;16.886;2023-07-20T11:49:22;100312.75;;;24.35;41.52
34073;BME280;20346;52.702;16.886;2023-07-20T11:52:29;100307.26;;;24.19;41.53
34073;BME280;20346;52.702;16.886;2023-07-20T11:55:55;100306.05;;;24.12;41.53
34073;BME280;20346;52.702;16.886;2023-07-20T11:59:21;100312.27;;;24.04;41.44
34073;BME280;20346;52.702;16.886;2023-07-20T12:02:32;100312.91;;;23.94;41.45
34073;BME280;20346;52.702;16.886;2023-07-20T12:06:05;100315.79;;;23.82;41.19
34073;BME280;20346;52.702;16.886;2023-07-20T12:09:23;100313.56;;;23.69;41.07
34073;BME280;20346;52.702;16.886;2023-07-20T12:12:49;100323.42;;;23.55;41.02
34073;BME280;20346;52.702;16.886;2023-07-20T12:16:15;100339.77;;;23.22;41.02
34073;BME280;20346;52.702;16.886;2023-07-20T12:19:40;100375.09;;;22.71;41.96
34073;BME280;20346;52.702;16.886;2023-07-20T12:23:10;100388.66;;;22.12;42.38
34073;BME280;20346;52.702;16.886;2023-07-20T12:26:35;100387.14;;;21.74;42.86
34073;BME280;20346;52.702;16.886;2023-07-20T12:30:01;100371.76;;;21.36;43.10
34073;BME280;20346;52.702;16.886;2023-07-20T12:33:12;100360.61;;;21.19;43.67
34073;BME280;20346;52.702;16.886;2023-07-20T12:36:38;100364.83;;;21.27;43.83
34073;BME280;20346;52.702;16.886;2023-07-20T12:40:06;100363.50;;;21.42;44.38
34073;BME280;20346;52.702;16.886;2023-07-20T12:43:33;100366.33;;;21.58;44.28
34073;BME280;20346;52.702;16.886;2023-07-20T12:46:32;100366.81;;;21.61;44.26
34073;BME280;20346;52.702;16.886;2023-07-20T12:49:59;100367.11;;;21.56;44.55
34073;BME280;20346;52.702;16.886;2023-07-20T12:53:25;100367.80;;;21.54;44.80
34073;BME280;20346;52.702;16.886;2023-07-20T12:56:06;100366.27;;;21.54;45.03
34073;BME280;20346;52.702;16.886;2023-07-20T12:59:32;100365.36;;;21.54;45.11
34073;BME280;20346;52.702;16.886;2023-07-20T13:02:58;100363.91;;;21.60;45.12
34073;BME280;20346;52.702;16.886;2023-07-20T13:06:05;100361.99;;;21.67;45.54
34073;BME280;20346;52.702;16.886;2023-07-20T13:09:07;100362.04;;;21.85;45.95
34073;BME280;20346;52.702;16.886;2023-07-20T13:12:02;100361.20;;;21.97;45.87
34073;BME280;20346;52.702;16.886;2023-07-20T13:15:31;100361.24;;;22.13;45.97
34073;BME280;20346;52.702;16.886;2023-07-20T13:18:56;100364.71;;;22.29;46.02
34073;BME280;20346;52.702;16.886;2023-07-20T13:22:22;100360.61;;;22.47;46.12
34073;BME280;20346;52.702;16.886;2023-07-20T13:25:48;100353.25;;;22.69;45.92
34073;BME280;20346;52.702;16.886;2023-07-20T13:28:23;100356.98;;;22.81;45.94
34073;BME280;20346;52.702;16.886;2023-07-20T13:30:56;100359.99;;;22.93;45.78
34073;BME280;20346;52.702;16.886;2023-07-20T13:33:30;100364.66;;;22.99;45.69
34073;BME280;20346;52.702;16.886;2023-07-20T13:36:04;100365.66;;;23.04;45.72
34073;BME280;20346;52.702;16.886;2023-07-20T13:38:37;100360.13;;;23.13;45.60
34073;BME280;20346;52.702;16.886;2023-07-20T13:41:11;100358.25;;;23.24;45.85
34073;BME280;20346;52.702;16.886;2023-07-20T13:43:44;100356.56;;;23.40;45.89
34073;BME280;20346;52.702;16.886;2023-07-20T13:46:18;100351.60;;;23.52;45.60
34073;BME280;20346;52.702;16.886;2023-07-20T13:48:53;100352.52;;;23.55;45.47
34073;BME280;20346;52.702;16.886;2023-07-20T13:51:26;100351.73;;;23.48;45.39
34073;BME280;20346;52.702;16.886;2023-07-20T13:54:00;100350.77;;;23.37;45.39
34073;BME280;20346;52.702;16.886;2023-07-20T13:56:33;100343.57;;;23.35;45.24
34073;BME280;20346;52.702;16.886;2023-07-20T13:59:08;100346.45;;;23.36;45.32
34073;BME280;20346;52.702;16.886;2023-07-20T14:01:41;100351.95;;;23.33;45.28
34073;BME280;20346;52.702;16.886;2023-07-20T14:04:15;100354.35;;;23.30;45.26
34073;BME280;20346;52.702;16.886;2023-07-20T14:06:49;100358.73;;;23.25;45.33
34073;BME280;20346;52.702;16.886;2023-07-20T14:09:22;100373.46;;;23.13;45.30
34073;BME280;20346;52.702;16.886;2023-07-20T14:11:56;100391.33;;;22.95;45.31
34073;BME280;20346;52.702;16.886;2023-07-20T14:14:30;100407.62;;;22.68;45.39
34073;BME280;20346;52.702;16.886;2023-07-20T14:17:05;100417.42;;;22.38;46.22
34073;BME280;20346;52.702;16.886;2023-07-20T14:19:39;100422.09;;;22.19;46.45
34073;BME280;20346;52.702;16.886;2023-07-20T14:22:12;100422.92;;;22.01;46.68
34073;BME280;20346;52.702;16.886;2023-07-20T14:25:38;100420.65;;;21.90;46.96
34073;BME280;20346;52.702;16.886;2023-07-20T14:29:05;100412.93;;;21.74;47.24
34073;BME280;20346;52.702;16.886;2023-07-20T14:32:31;100407.61;;;21.67;47.58
34073;BME280;20346;52.702;16.886;2023-07-20T14:35:58;100408.63;;;21.68;47.97
34073;BME280;20346;52.702;16.886;2023-07-20T14:39:24;100404.50;;;21.74;48.40
34073;BME280;20346;52.702;16.886;2023-07-20T14:42:50;100405.55;;;21.72;48.26
34073;BME280;20346;52.702;16.886;2023-07-20T14:46:17;100410.80;;;21.77;48.43
34073;BME280;20346;52.702;16.886;2023-07-20T14:49:43;100402.23;;;21.87;48.60
34073;BME280;20346;52.702;16.886;2023-07-20T14:53:10;100396.64;;;21.97;48.76
34073;BME280;20346;52.702;16.886;2023-07-20T14:56:37;100394.29;;;21.93;48.75
34073;BME280;20346;52.702;16.886;2023-07-20T15:00:03;100389.84;;;21.84;49.01
34073;BME280;20346;52.702;16.886;2023-07-20T15:03:29;100390.61;;;21.83;49.20
34073;BME280;20346;52.702;16.886;2023-07-20T15:06:56;100387.73;;;21.86;49.41
34073;BME280;20346;52.702;16.886;2023-07-20T15:10:22;100382.73;;;21.93;49.38
34073;BME280;20346;52.702;16.886;2023-07-20T15:13:49;100387.61;;;22.01;49.64
34073;BME280;20346;52.702;16.886;2023-07-20T15:17:15;100386.02;;;22.12;49.70
34073;BME280;20346;52.702;16.886;2023-07-20T15:20:45;100388.90;;;22.24;49.91
34073;BME280;20346;52.702;16.886;2023-07-20T15:24:11;100384.73;;;22.34;49.84
34073;BME280;20346;52.702;16.886;2023-07-20T15:27:38;100385.70;;;22.35;49.62
34073;BME280;20346;52.702;16.886;2023-07-20T15:39:48;100382.91;;;22.34;49.85
34073;BME280;20346;52.702;16.886;2023-07-20T15:42:21;100385.83;;;22.31;49.94
34073;BME280;20346;52.702;16.886;2023-07-20T15:44:55;100381.22;;;22.26;50.12
34073;BME280;20346;52.702;16.886;2023-07-20T15:47:28;100380.00;;;22.23;49.92
34073;BME280;20346;52.702;16.886;2023-07-20T15:50:05;100380.86;;;22.21;49.95
34073;BME280;20346;52.702;16.886;2023-07-20T15:52:38;100384.56;;;22.16;49.81
34073;BME280;20346;52.702;16.886;2023-07-20T15:55:12;100385.77;;;22.08;49.62